Quincy, Illinois
Current Conditions -  °F | °C
As of 9:54 PM on Saturday 20 Dec 2014 (Local Time) from KUIN Reporting Station
Overcast Overcast  
Wind Chill: 31°   Ceiling: 3300
Heat Index: 38°   Visibility: 7mi
Dew Point: 33°   Wind: 10mph
Humidity: 83%   Direction: 180°S
Pressure: 30.2"   Gusts: NA
Location:  39.94°N, 91.39°W
Report Text: KUIN 210354Z AUTO 18009KT 7SM OVC033 03/01 A3020 RMK AO2 SLP231 T00330006
Loading
Personal Weather Stations






























Interactive Weather Map New forecast layout! Learn more

10-Day Weather Forecast

Advertisements
Track Severe Weather on mobile